Time;durP1;ratioP1;P1;durP2;ratioP2;P2;SDS_P1;SDS_P2;PMS_P1;PMS_P2;Temp;Humidity;BMP_temperature;BMP_pressure;BME280_temperature;BME280_humidity;BME280_pressure;Samples;Min_cycle;Max_cycle;Signal;HPM_P1;HPM_P2
2022/06/29 00:00:06;;;;;;;0.00;0.00;;;;;;;;;;5058632;28;20032;-88
2022/06/29 00:02:33;;;;;;;0.00;0.00;;;;;;;;;;5058887;28;20488;-89
2022/06/29 00:04:58;;;;;;;0.00;0.00;;;;;;;;;;5058488;28;20041;-90
2022/06/29 00:07:24;;;;;;;0.00;0.00;;;;;;;;;;5058521;28;20036;-88
2022/06/29 00:09:50;;;;;;;0.00;0.00;;;;;;;;;;5058467;28;20115;-90
2022/06/29 00:12:17;;;;;;;0.10;0.00;;;;;;;;;;5058786;28;20040;-89
2022/06/29 00:14:42;;;;;;;0.00;0.00;;;;;;;;;;5058515;28;20047;-90
2022/06/29 00:17:12;;;;;;;0.00;0.00;;;;;;;;;;5058288;28;20411;-91
2022/06/29 00:19:39;;;;;;;0.00;0.00;;;;;;;;;;5058754;28;20040;-91
2022/06/29 00:22:05;;;;;;;0.00;0.00;;;;;;;;;;5058175;28;20040;-89
2022/06/29 00:24:32;;;;;;;0.00;0.00;;;;;;;;;;5058241;28;20040;-89
2022/06/29 00:26:58;;;;;;;0.00;0.00;;;;;;;;;;5041563;28;20036;-89
2022/06/29 00:29:24;;;;;;;0.00;0.00;;;;;;;;;;5058701;28;20055;-88
2022/06/29 00:31:50;;;;;;;0.00;0.00;;;;;;;;;;5058332;28;20044;-90
2022/06/29 00:34:16;;;;;;;0.00;0.00;;;;;;;;;;5058243;28;20071;-89
2022/06/29 00:36:42;;;;;;;0.00;0.00;;;;;;;;;;5057986;28;20060;-90
2022/06/29 00:39:08;;;;;;;0.00;0.00;;;;;;;;;;5058172;28;20364;-89
2022/06/29 00:41:38;;;;;;;0.00;0.00;;;;;;;;;;5057846;28;20040;-88
2022/06/29 00:44:07;;;;;;;0.00;0.00;;;;;;;;;;5058171;28;20055;-90
2022/06/29 00:46:33;;;;;;;0.00;0.00;;;;;;;;;;5076084;28;20040;-89
2022/06/29 00:48:59;;;;;;;0.00;0.00;;;;;;;;;;5058062;28;20055;-89
2022/06/29 00:51:25;;;;;;;0.00;0.00;;;;;;;;;;5057713;28;20116;-89
2022/06/29 00:53:51;;;;;;;0.00;0.00;;;;;;;;;;5057609;28;20333;-87
2022/06/29 00:56:18;;;;;;;0.00;0.00;;;;;;;;;;5057350;28;20432;-88
2022/06/29 00:58:45;;;;;;;0.00;0.00;;;;;;;;;;5041219;28;20051;-88
2022/06/29 01:01:12;;;;;;;0.00;0.00;;;;;;;;;;5057748;28;20042;-92
2022/06/29 01:03:39;;;;;;;0.00;0.00;;;;;;;;;;5057875;28;20044;-89
2022/06/29 01:06:06;;;;;;;0.00;0.00;;;;;;;;;;5057862;28;20527;-90
2022/06/29 01:08:32;;;;;;;0.00;0.00;;;;;;;;;;5057841;28;20113;-92
2022/06/29 01:10:58;;;;;;;0.00;0.00;;;;;;;;;;5057562;28;20098;-91
2022/06/29 01:13:24;;;;;;;0.00;0.00;;;;;;;;;;5057938;28;20453;-90
2022/06/29 01:15:50;;;;;;;0.00;0.00;;;;;;;;;;5057540;28;20040;-89
2022/06/29 01:18:16;;;;;;;0.00;0.00;;;;;;;;;;5057636;28;20385;-90
2022/06/29 01:20:42;;;;;;;0.00;0.00;;;;;;;;;;5057385;28;20051;-88
2022/06/29 01:23:08;;;;;;;0.22;0.00;;;;;;;;;;5057556;28;20055;-90
2022/06/29 01:25:34;;;;;;;0.00;0.00;;;;;;;;;;5057196;28;20048;-88
2022/06/29 01:28:00;;;;;;;0.00;0.00;;;;;;;;;;5040941;28;20047;-90
2022/06/29 01:30:26;;;;;;;0.00;0.00;;;;;;;;;;5057361;28;20523;-91
2022/06/29 01:32:52;;;;;;;0.00;0.00;;;;;;;;;;5056871;28;20051;-89
2022/06/29 01:35:22;;;;;;;0.00;0.00;;;;;;;;;;5040483;28;20037;-89
2022/06/29 01:37:48;;;;;;;0.00;0.00;;;;;;;;;;5057077;28;20037;-90
2022/06/29 01:40:14;;;;;;;0.10;0.00;;;;;;;;;;5057011;28;20036;-90
2022/06/29 01:42:40;;;;;;;0.00;0.00;;;;;;;;;;5056924;28;20484;-88
2022/06/29 01:45:07;;;;;;;0.00;0.00;;;;;;;;;;5057128;28;20064;-90
2022/06/29 01:47:33;;;;;;;0.20;0.10;;;;;;;;;;5056756;28;20492;-90
2022/06/29 01:49:59;;;;;;;0.00;0.00;;;;;;;;;;5040362;28;20044;-89
2022/06/29 01:52:25;;;;;;;0.00;0.00;;;;;;;;;;5056685;28;20511;-90
2022/06/29 01:54:51;;;;;;;0.00;0.00;;;;;;;;;;5056626;28;20052;-90
2022/06/29 01:57:17;;;;;;;0.00;0.00;;;;;;;;;;5056824;28;20134;-90
2022/06/29 01:59:43;;;;;;;0.00;0.00;;;;;;;;;;5040100;28;20036;-90
2022/06/29 02:02:09;;;;;;;0.00;0.00;;;;;;;;;;5056492;28;20112;-90
2022/06/29 02:04:35;;;;;;;0.00;0.00;;;;;;;;;;5056746;28;20044;-89
2022/06/29 02:07:01;;;;;;;0.00;0.00;;;;;;;;;;5056307;28;20040;-91
2022/06/29 02:09:27;;;;;;;0.00;0.00;;;;;;;;;;5056045;28;20097;-89
2022/06/29 02:11:53;;;;;;;0.00;0.00;;;;;;;;;;5039901;28;20519;-89
2022/06/29 02:14:19;;;;;;;0.00;0.00;;;;;;;;;;5039775;28;20044;-88
2022/06/29 02:16:45;;;;;;;0.00;0.00;;;;;;;;;;5056414;28;20131;-89
2022/06/29 02:19:11;;;;;;;0.00;0.00;;;;;;;;;;5056280;28;20043;-89
2022/06/29 02:21:37;;;;;;;0.00;0.00;;;;;;;;;;5056239;28;20048;-90
2022/06/29 02:24:03;;;;;;;0.00;0.00;;;;;;;;;;5056096;28;20550;-89
2022/06/29 02:26:29;;;;;;;0.00;0.00;;;;;;;;;;5056261;28;20544;-89
2022/06/29 02:28:55;;;;;;;0.00;0.00;;;;;;;;;;5056288;28;20048;-89
2022/06/29 02:36:50;;;;;;;0.00;0.00;;;;;;;;;;5055946;28;20076;-87
2022/06/29 02:39:16;;;;;;;0.00;0.00;;;;;;;;;;5056144;28;20059;-89
2022/06/29 02:41:42;;;;;;;0.00;0.00;;;;;;;;;;5055593;28;20488;-87
2022/06/29 02:44:08;;;;;;;0.00;0.00;;;;;;;;;;5055233;28;20052;-87
2022/06/29 02:46:34;;;;;;;0.00;0.00;;;;;;;;;;5073118;28;20091;-89
2022/06/29 02:49:00;;;;;;;0.00;0.00;;;;;;;;;;5055868;28;20119;-88
2022/06/29 02:51:26;;;;;;;0.00;0.00;;;;;;;;;;5055164;28;20081;-89
2022/06/29 02:53:52;;;;;;;0.00;0.00;;;;;;;;;;5055508;28;20040;-88
2022/06/29 02:56:18;;;;;;;0.00;0.00;;;;;;;;;;5055709;28;20036;-90
2022/06/29 02:58:44;;;;;;;0.00;0.00;;;;;;;;;;5055405;28;20043;-91
2022/06/29 03:01:10;;;;;;;0.00;0.00;;;;;;;;;;5055315;28;20036;-89
2022/06/29 03:03:36;;;;;;;0.00;0.00;;;;;;;;;;5055488;28;20044;-90
2022/06/29 03:06:02;;;;;;;0.00;0.00;;;;;;;;;;5055495;28;20085;-90
2022/06/29 03:08:28;;;;;;;0.00;0.00;;;;;;;;;;5055662;28;20099;-89
2022/06/29 03:10:54;;;;;;;0.00;0.00;;;;;;;;;;5055691;28;20487;-89
2022/06/29 03:13:20;;;;;;;0.00;0.00;;;;;;;;;;5054991;28;20048;-87
2022/06/29 03:15:46;;;;;;;0.00;0.00;;;;;;;;;;5055117;28;20047;-90
2022/06/29 03:18:12;;;;;;;0.00;0.00;;;;;;;;;;5055029;28;20463;-89
2022/06/29 03:20:38;;;;;;;0.00;0.00;;;;;;;;;;5055489;28;20059;-88
2022/06/29 03:23:04;;;;;;;0.20;0.00;;;;;;;;;;5055026;28;20498;-89
2022/06/29 03:25:30;;;;;;;0.00;0.00;;;;;;;;;;5038595;28;20135;-89
2022/06/29 03:27:56;;;;;;;0.00;0.00;;;;;;;;;;5038401;28;20127;-89
2022/06/29 03:30:22;;;;;;;0.00;0.00;;;;;;;;;;5072948;28;20041;-90
2022/06/29 03:32:48;;;;;;;0.00;0.00;;;;;;;;;;5054723;28;20059;-89
2022/06/29 03:35:14;;;;;;;0.00;0.00;;;;;;;;;;5054953;28;20036;-88
2022/06/29 03:37:40;;;;;;;0.00;0.00;;;;;;;;;;5072777;28;20033;-88
2022/06/29 03:40:06;;;;;;;0.00;0.00;;;;;;;;;;5055029;28;20039;-90
2022/06/29 03:42:32;;;;;;;0.00;0.00;;;;;;;;;;5054967;28;20383;-89
2022/06/29 03:44:58;;;;;;;0.00;0.00;;;;;;;;;;5054966;28;20136;-88
2022/06/29 03:47:25;;;;;;;0.00;0.00;;;;;;;;;;5054928;28;20052;-90
2022/06/29 03:49:52;;;;;;;0.00;0.00;;;;;;;;;;5055799;28;20044;-90
2022/06/29 03:52:18;;;;;;;0.00;0.00;;;;;;;;;;5055145;28;20111;-89
2022/06/29 03:54:44;;;;;;;0.00;0.00;;;;;;;;;;5038326;28;20041;-89
2022/06/29 03:57:10;;;;;;;0.00;0.00;;;;;;;;;;5054902;28;20047;-89
2022/06/29 03:59:36;;;;;;;0.00;0.00;;;;;;;;;;5054953;28;20043;-91
2022/06/29 04:02:02;;;;;;;0.00;0.00;;;;;;;;;;5038356;28;20037;-90
2022/06/29 04:04:28;;;;;;;0.00;0.00;;;;;;;;;;5038591;28;20036;-90
2022/06/29 04:06:54;;;;;;;0.00;0.00;;;;;;;;;;5055413;28;20040;-92
2022/06/29 04:09:20;;;;;;;0.00;0.00;;;;;;;;;;5055117;28;20052;-90
2022/06/29 04:11:49;;;;;;;0.00;0.00;;;;;;;;;;5054970;28;20102;-89
2022/06/29 04:14:16;;;;;;;0.00;0.00;;;;;;;;;;5054754;28;20051;-90
2022/06/29 04:16:42;;;;;;;0.00;0.00;;;;;;;;;;5054961;28;20043;-91
2022/06/29 04:19:08;;;;;;;0.00;0.00;;;;;;;;;;5055317;28;20123;-91
2022/06/29 04:21:34;;;;;;;0.00;0.00;;;;;;;;;;5055079;28;20040;-90
2022/06/29 04:24:00;;;;;;;0.00;0.00;;;;;;;;;;5055178;28;20098;-89
2022/06/29 04:26:26;;;;;;;0.00;0.00;;;;;;;;;;5055396;28;20136;-88
2022/06/29 04:28:52;;;;;;;0.00;0.00;;;;;;;;;;5054917;28;20047;-88
2022/06/29 04:31:18;;;;;;;0.00;0.00;;;;;;;;;;5056146;28;20040;-91
2022/06/29 04:33:44;;;;;;;0.00;0.00;;;;;;;;;;5041720;28;20044;-90
2022/06/29 04:36:10;;;;;;;0.00;0.00;;;;;;;;;;5059547;28;20040;-90
2022/06/29 04:38:36;;;;;;;0.00;0.00;;;;;;;;;;5058409;28;20047;-89
2022/06/29 04:41:02;;;;;;;0.00;0.00;;;;;;;;;;5058315;28;20070;-88
2022/06/29 04:43:29;;;;;;;0.00;0.00;;;;;;;;;;5057872;28;20075;-88
2022/06/29 04:48:40;;;;;;;0.00;0.00;;;;;;;;;;5075943;28;20052;-89
2022/06/29 04:51:06;;;;;;;0.00;0.00;;;;;;;;;;5058257;28;20298;-90
2022/06/29 04:53:32;;;;;;;0.00;0.00;;;;;;;;;;5057600;28;20040;-90
2022/06/29 04:55:58;;;;;;;0.00;0.00;;;;;;;;;;5058266;28;20048;-89
2022/06/29 04:58:24;;;;;;;0.00;0.00;;;;;;;;;;5040770;28;20082;-87
2022/06/29 05:00:50;;;;;;;0.00;0.00;;;;;;;;;;5057797;28;20094;-88
2022/06/29 05:03:16;;;;;;;0.00;0.00;;;;;;;;;;5057215;28;20472;-87
2022/06/29 05:05:42;;;;;;;0.00;0.00;;;;;;;;;;5057323;28;20068;-89
2022/06/29 05:08:08;;;;;;;0.00;0.00;;;;;;;;;;5040602;28;20410;-89
2022/06/29 05:10:34;;;;;;;0.00;0.00;;;;;;;;;;5057410;28;20075;-88
2022/06/29 05:13:00;;;;;;;0.00;0.00;;;;;;;;;;5057067;28;20060;-89
2022/06/29 05:15:26;;;;;;;0.00;0.00;;;;;;;;;;5075378;28;20488;-89
2022/06/29 05:17:52;;;;;;;0.00;0.00;;;;;;;;;;5057318;28;20472;-89
2022/06/29 05:20:20;;;;;;;0.00;0.00;;;;;;;;;;5075329;28;20033;-90
2022/06/29 05:22:46;;;;;;;0.00;0.00;;;;;;;;;;5057839;28;20072;-90
2022/06/29 05:25:12;;;;;;;0.20;0.10;;;;;;;;;;5057463;28;20450;-92
2022/06/29 05:27:38;;;;;;;0.00;0.00;;;;;;;;;;5075106;28;20072;-90
2022/06/29 05:30:05;;;;;;;0.00;0.00;;;;;;;;;;5074911;28;20040;-88
2022/06/29 05:32:31;;;;;;;0.00;0.00;;;;;;;;;;5057057;28;20076;-89
2022/06/29 05:34:57;;;;;;;0.00;0.00;;;;;;;;;;5056550;28;20541;-88
2022/06/29 05:37:23;;;;;;;0.00;0.00;;;;;;;;;;5056838;28;20075;-88
2022/06/29 05:39:49;;;;;;;0.00;0.00;;;;;;;;;;5040276;28;20076;-89
2022/06/29 05:42:15;;;;;;;0.00;0.00;;;;;;;;;;5055995;28;20480;-89
2022/06/29 05:44:41;;;;;;;0.00;0.00;;;;;;;;;;5039646;28;20140;-88
2022/06/29 05:47:07;;;;;;;0.00;0.00;;;;;;;;;;5039934;28;20131;-88
2022/06/29 05:49:37;;;;;;;0.00;0.00;;;;;;;;;;5056293;28;20495;-88
2022/06/29 05:52:04;;;;;;;0.00;0.00;;;;;;;;;;5056379;28;20526;-87
2022/06/29 05:54:30;;;;;;;0.00;0.00;;;;;;;;;;5056256;28;20049;-88
2022/06/29 05:56:56;;;;;;;0.00;0.00;;;;;;;;;;5039697;28;20083;-88
2022/06/29 05:59:21;;;;;;;0.00;0.00;;;;;;;;;;5056161;28;20140;-89
2022/06/29 06:01:47;;;;;;;0.00;0.00;;;;;;;;;;5056477;28;20040;-89
2022/06/29 06:04:13;;;;;;;0.00;0.00;;;;;;;;;;5056233;28;20510;-88
2022/06/29 06:06:39;;;;;;;0.00;0.00;;;;;;;;;;5056667;28;20442;-88
2022/06/29 06:09:05;;;;;;;0.00;0.00;;;;;;;;;;5056261;28;20041;-90
2022/06/29 06:11:31;;;;;;;0.00;0.00;;;;;;;;;;5056266;28;20059;-87
2022/06/29 06:13:57;;;;;;;0.00;0.00;;;;;;;;;;5039348;28;20083;-88
2022/06/29 06:16:23;;;;;;;0.00;0.00;;;;;;;;;;5056129;28;20044;-89
2022/06/29 06:18:49;;;;;;;0.00;0.00;;;;;;;;;;5056270;28;20491;-89
2022/06/29 06:21:15;;;;;;;0.00;0.00;;;;;;;;;;5039575;28;20044;-89
2022/06/29 06:23:41;;;;;;;0.00;0.00;;;;;;;;;;5056054;28;20040;-90
2022/06/29 06:26:07;;;;;;;0.00;0.00;;;;;;;;;;5056755;28;20071;-93
2022/06/29 06:28:33;;;;;;;0.00;0.00;;;;;;;;;;5039777;28;20487;-92
2022/06/29 06:30:59;;;;;;;0.00;0.00;;;;;;;;;;5056241;28;20044;-92
2022/06/29 06:33:25;;;;;;;0.20;0.03;;;;;;;;;;5056503;28;20070;-93
2022/06/29 06:35:51;;;;;;;0.00;0.00;;;;;;;;;;5055884;28;20044;-93
2022/06/29 06:38:18;;;;;;;0.00;0.00;;;;;;;;;;5056400;28;20036;-92
2022/06/29 06:43:28;;;;;;;0.00;0.00;;;;;;;;;;5074056;28;20040;-91
2022/06/29 06:45:54;;;;;;;0.00;0.00;;;;;;;;;;5073642;28;20049;-89
2022/06/29 06:48:20;;;;;;;0.00;0.00;;;;;;;;;;5055172;28;20048;-90
2022/06/29 06:50:46;;;;;;;0.00;0.00;;;;;;;;;;5056221;28;20377;-90
2022/06/29 06:53:12;;;;;;;0.00;0.00;;;;;;;;;;5054878;28;20040;-85
2022/06/29 06:55:38;;;;;;;0.00;0.00;;;;;;;;;;5038241;28;20045;-86
2022/06/29 06:58:04;;;;;;;0.00;0.00;;;;;;;;;;5055601;28;20041;-90
2022/06/29 07:00:31;;;;;;;0.00;0.00;;;;;;;;;;5055276;28;20043;-89
2022/06/29 07:02:57;;;;;;;0.00;0.00;;;;;;;;;;5039137;28;20048;-89
2022/06/29 07:05:25;;;;;;;0.00;0.00;;;;;;;;;;5018818;28;20483;-89
2022/06/29 07:07:51;;;;;;;0.00;0.00;;;;;;;;;;5053806;28;20052;-91
2022/06/29 07:10:17;;;;;;;0.00;0.00;;;;;;;;;;5055688;28;20094;-93
2022/06/29 07:12:42;;;;;;;0.00;0.00;;;;;;;;;;5039063;28;20044;-91
2022/06/29 07:15:09;;;;;;;0.00;0.00;;;;;;;;;;5055669;28;20041;-91
2022/06/29 07:17:35;;;;;;;0.00;0.00;;;;;;;;;;5055623;28;20178;-93
2022/06/29 07:20:01;;;;;;;0.00;0.00;;;;;;;;;;5055350;28;20487;-91
2022/06/29 07:22:27;;;;;;;0.00;0.00;;;;;;;;;;5055711;28;20187;-91
2022/06/29 07:24:53;;;;;;;0.00;0.00;;;;;;;;;;5055332;28;20044;-92
2022/06/29 07:27:18;;;;;;;0.00;0.00;;;;;;;;;;5055621;28;20055;-92
2022/06/29 07:29:45;;;;;;;0.00;0.00;;;;;;;;;;5055980;28;20040;-91
2022/06/29 07:32:10;;;;;;;0.00;0.00;;;;;;;;;;5055763;28;20491;-91
2022/06/29 07:34:36;;;;;;;0.00;0.00;;;;;;;;;;5038342;28;20036;-91
2022/06/29 07:37:03;;;;;;;0.00;0.00;;;;;;;;;;5055119;28;20037;-93
2022/06/29 07:39:31;;;;;;;0.00;0.00;;;;;;;;;;5055098;28;20558;-92
2022/06/29 07:41:58;;;;;;;0.00;0.00;;;;;;;;;;5037786;28;20032;-88
2022/06/29 07:44:24;;;;;;;0.00;0.00;;;;;;;;;;5054577;28;20147;-93
2022/06/29 07:46:50;;;;;;;0.00;0.00;;;;;;;;;;5055128;28;20117;-90
2022/06/29 07:49:16;;;;;;;0.00;0.00;;;;;;;;;;5055017;28;20399;-92
2022/06/29 07:51:42;;;;;;;0.00;0.00;;;;;;;;;;5073077;28;20036;-89
2022/06/29 07:54:08;;;;;;;0.00;0.00;;;;;;;;;;5054874;28;20105;-89
2022/06/29 07:56:36;;;;;;;0.00;0.00;;;;;;;;;;5055087;28;20093;-90
2022/06/29 07:59:02;;;;;;;0.00;0.00;;;;;;;;;;5055081;28;20488;-91
2022/06/29 08:01:28;;;;;;;0.00;0.00;;;;;;;;;;5054075;28;20044;-91
2022/06/29 08:03:54;;;;;;;0.00;0.00;;;;;;;;;;5055276;28;20490;-90
2022/06/29 08:06:20;;;;;;;0.00;0.00;;;;;;;;;;5056220;28;20049;-92
2022/06/29 08:08:46;;;;;;;0.00;0.00;;;;;;;;;;5058647;28;20044;-88
2022/06/29 08:11:12;;;;;;;0.00;0.00;;;;;;;;;;5059022;28;20097;-89
2022/06/29 08:13:38;;;;;;;0.00;0.00;;;;;;;;;;5058410;28;20186;-88
2022/06/29 08:16:08;;;;;;;0.00;0.00;;;;;;;;;;5058812;28;20037;-91
2022/06/29 08:18:34;;;;;;;0.00;0.00;;;;;;;;;;5059123;28;20484;-90
2022/06/29 08:21:01;;;;;;;0.00;0.00;;;;;;;;;;5058530;28;20040;-91
2022/06/29 08:23:27;;;;;;;0.00;0.00;;;;;;;;;;5058760;28;20044;-90
2022/06/29 08:25:53;;;;;;;0.00;0.00;;;;;;;;;;5042015;28;20036;-89
2022/06/29 08:28:19;;;;;;;0.00;0.00;;;;;;;;;;5058700;28;20045;-92
2022/06/29 08:30:46;;;;;;;0.00;0.00;;;;;;;;;;5058517;28;20491;-89
2022/06/29 08:33:12;;;;;;;0.00;0.00;;;;;;;;;;5058366;28;20094;-91
2022/06/29 08:35:38;;;;;;;0.00;0.00;;;;;;;;;;5058750;28;20051;-91
2022/06/29 08:38:04;;;;;;;0.00;0.00;;;;;;;;;;5058662;28;20127;-92
2022/06/29 08:40:41;;;;;;;0.00;0.00;;;;;;;;;;5041831;28;20559;-92
2022/06/29 08:43:08;;;;;;;0.00;0.00;;;;;;;;;;5058658;28;20097;-93
2022/06/29 08:45:34;;;;;;;0.00;0.00;;;;;;;;;;5042121;28;20539;-93
2022/06/29 08:48:01;;;;;;;0.00;0.00;;;;;;;;;;5058920;28;20040;-90
2022/06/29 08:50:27;;;;;;;0.00;0.00;;;;;;;;;;5057853;28;20048;-91
2022/06/29 08:52:56;;;;;;;0.00;0.00;;;;;;;;;;5058116;28;20536;-89
2022/06/29 08:55:23;;;;;;;0.00;0.00;;;;;;;;;;5040945;28;20512;-90
2022/06/29 08:57:49;;;;;;;0.00;0.00;;;;;;;;;;5057586;28;20036;-91
2022/06/29 09:00:15;;;;;;;0.00;0.00;;;;;;;;;;5040906;28;20453;-90
2022/06/29 09:02:41;;;;;;;0.00;0.00;;;;;;;;;;5058360;28;20080;-91
2022/06/29 09:05:07;;;;;;;0.00;0.00;;;;;;;;;;5057574;28;20090;-91
2022/06/29 09:07:33;;;;;;;0.00;0.00;;;;;;;;;;5057626;28;20452;-90
2022/06/29 09:10:12;;;;;;;0.00;0.00;;;;;;;;;;5057521;28;20040;-90
2022/06/29 09:12:38;;;;;;;0.00;0.00;;;;;;;;;;5057679;28;20036;-90
2022/06/29 09:15:05;;;;;;;0.00;0.00;;;;;;;;;;5057561;28;20043;-91
2022/06/29 09:17:32;;;;;;;0.00;0.00;;;;;;;;;;5057086;28;20076;-90
2022/06/29 09:19:58;;;;;;;0.00;0.00;;;;;;;;;;5057418;28;20036;-91
2022/06/29 09:22:24;;;;;;;0.00;0.00;;;;;;;;;;5057124;28;20479;-89
2022/06/29 09:24:51;;;;;;;0.00;0.00;;;;;;;;;;5040783;28;20040;-89
2022/06/29 09:27:17;;;;;;;0.00;0.00;;;;;;;;;;5057398;28;20131;-90
2022/06/29 09:29:44;;;;;;;0.00;0.00;;;;;;;;;;5041090;28;20036;-92
2022/06/29 09:32:11;;;;;;;0.00;0.00;;;;;;;;;;5060192;28;20048;-93
2022/06/29 09:34:39;;;;;;;0.00;0.00;;;;;;;;;;5058605;28;20087;-91
2022/06/29 09:37:06;;;;;;;0.00;0.00;;;;;;;;;;5057446;28;20079;-93
2022/06/29 09:39:37;;;;;;;0.00;0.00;;;;;;;;;;5057282;28;20068;-91
2022/06/29 09:42:03;;;;;;;0.00;0.00;;;;;;;;;;5057032;28;20041;-90
2022/06/29 09:44:29;;;;;;;0.00;0.00;;;;;;;;;;5056918;28;20124;-90
2022/06/29 09:46:56;;;;;;;0.00;0.00;;;;;;;;;;5057085;28;20124;-93
2022/06/29 09:49:27;;;;;;;0.00;0.00;;;;;;;;;;5057036;28;20051;-92
2022/06/29 09:51:57;;;;;;;0.00;0.00;;;;;;;;;;5056943;28;20048;-91
2022/06/29 09:54:25;;;;;;;0.00;0.00;;;;;;;;;;5040275;28;20049;-91
2022/06/29 09:56:51;;;;;;;0.00;0.00;;;;;;;;;;5056548;28;20143;-90
2022/06/29 10:05:04;;;;;;;0.00;0.00;;;;;;;;;;5056843;28;20460;-92
2022/06/29 10:07:30;;;;;;;0.00;0.00;;;;;;;;;;5040303;28;20037;-91
2022/06/29 10:09:57;;;;;;;0.00;0.00;;;;;;;;;;5057041;28;20041;-92
2022/06/29 10:15:22;;;;;;;0.00;0.00;;;;;;;;;;5056353;28;20048;-91
2022/06/29 10:17:55;;;;;;;0.00;0.00;;;;;;;;;;5074056;28;20075;-92
2022/06/29 10:20:28;;;;;;;0.00;0.00;;;;;;;;;;5056459;28;20400;-89
2022/06/29 10:22:54;;;;;;;0.15;0.08;;;;;;;;;;5039439;28;20098;-90
2022/06/29 10:25:27;;;;;;;0.00;0.00;;;;;;;;;;5056093;28;20083;-90
2022/06/29 10:28:16;;;;;;;0.00;0.00;;;;;;;;;;5056326;28;20123;-91
2022/06/29 10:30:43;;;;;;;0.00;0.00;;;;;;;;;;5055776;28;20492;-90
2022/06/29 10:33:28;;;;;;;0.00;0.00;;;;;;;;;;5056160;28;20044;-90
2022/06/29 10:36:06;;;;;;;0.00;0.00;;;;;;;;;;5040104;28;20488;-91
2022/06/29 10:38:55;;;;;;;0.00;0.00;;;;;;;;;;5039815;28;20124;-91
2022/06/29 10:44:07;;;;;;;0.00;0.00;;;;;;;;;;5055551;28;20077;-92
2022/06/29 10:46:52;;;;;;;0.00;0.00;;;;;;;;;;5056068;28;20393;-91
2022/06/29 10:49:20;;;;;;;0.00;0.00;;;;;;;;;;5056344;28;20075;-93
2022/06/29 10:51:49;;;;;;;0.00;0.00;;;;;;;;;;5056692;28;20115;-93
2022/06/29 10:54:25;;;;;;;0.00;0.00;;;;;;;;;;5039387;28;20373;-94
2022/06/29 10:56:51;;;;;;;0.00;0.00;;;;;;;;;;5039438;28;20032;-93
2022/06/29 10:59:36;;;;;;;0.00;0.00;;;;;;;;;;5039943;28;20127;-92
2022/06/29 11:02:16;;;;;;;0.00;0.00;;;;;;;;;;5055865;28;20046;-92
2022/06/29 11:04:43;;;;;;;0.00;0.00;;;;;;;;;;5055804;28;20041;-91
2022/06/29 11:12:49;;;;;;;0.00;0.00;;;;;;;;;;5055678;28;20044;-93
2022/06/29 11:18:11;;;;;;;0.00;0.00;;;;;;;;;;5055570;28;20499;-92
2022/06/29 11:20:41;;;;;;;0.10;0.10;;;;;;;;;;5056006;28;20097;-91
2022/06/29 11:23:12;;;;;;;0.00;0.00;;;;;;;;;;5055622;28;20044;-92
2022/06/29 11:55:37;;;;;;;0.00;0.00;;;;;;;;;;5111455;27;20388;-87
2022/06/29 11:58:03;;;;;;;0.00;0.00;;;;;;;;;;5109295;28;20126;-88
2022/06/29 12:00:30;;;;;;;0.00;0.00;;;;;;;;;;5110958;28;20078;-89
2022/06/29 12:03:00;;;;;;;0.00;0.00;;;;;;;;;;5110705;28;20479;-87
2022/06/29 12:05:26;;;;;;;0.00;0.00;;;;;;;;;;5109558;28;20068;-87
2022/06/29 12:07:52;;;;;;;0.00;0.00;;;;;;;;;;5109949;28;20040;-88
2022/06/29 12:10:18;;;;;;;0.05;0.00;;;;;;;;;;5109591;28;20097;-88
2022/06/29 12:12:44;;;;;;;0.00;0.00;;;;;;;;;;5108361;28;20040;-88
2022/06/29 12:15:11;;;;;;;0.00;0.00;;;;;;;;;;5109404;28;20047;-90
2022/06/29 12:17:37;;;;;;;0.00;0.00;;;;;;;;;;5110709;28;20040;-88
2022/06/29 12:20:04;;;;;;;0.00;0.00;;;;;;;;;;5110670;28;20046;-89
2022/06/29 12:22:30;;;;;;;0.00;0.00;;;;;;;;;;5109251;28;20044;-88
2022/06/29 12:24:56;;;;;;;0.00;0.00;;;;;;;;;;5109300;28;20071;-89
2022/06/29 12:27:22;;;;;;;0.00;0.00;;;;;;;;;;5109088;28;20101;-89
2022/06/29 12:29:48;;;;;;;0.00;0.00;;;;;;;;;;5109290;28;20375;-88
2022/06/29 12:32:13;;;;;;;0.00;0.00;;;;;;;;;;5110472;28;20031;-87
2022/06/29 12:34:42;;;;;;;0.00;0.00;;;;;;;;;;5109080;28;20040;-89
2022/06/29 12:37:08;;;;;;;0.00;0.00;;;;;;;;;;5092120;28;20039;-90
2022/06/29 12:39:34;;;;;;;0.00;0.00;;;;;;;;;;5092432;28;20109;-89
2022/06/29 12:42:02;;;;;;;0.15;0.00;;;;;;;;;;5109238;28;20047;-88
2022/06/29 12:44:29;;;;;;;0.00;0.00;;;;;;;;;;5108487;28;20124;-88
2022/06/29 12:46:54;;;;;;;0.00;0.00;;;;;;;;;;5108636;28;20097;-87
2022/06/29 12:49:21;;;;;;;0.00;0.00;;;;;;;;;;5108458;28;20406;-89
2022/06/29 12:51:47;;;;;;;0.00;0.00;;;;;;;;;;5108675;28;20039;-86
2022/06/29 12:54:13;;;;;;;0.00;0.00;;;;;;;;;;5107751;28;20491;-89
2022/06/29 12:56:39;;;;;;;0.00;0.00;;;;;;;;;;5090629;28;20040;-87
2022/06/29 12:59:05;;;;;;;0.00;0.00;;;;;;;;;;5108075;28;20046;-88
2022/06/29 13:01:31;;;;;;;0.00;0.00;;;;;;;;;;5108383;28;20036;-87
2022/06/29 13:03:57;;;;;;;0.00;0.00;;;;;;;;;;5108126;28;20039;-89
2022/06/29 13:06:23;;;;;;;0.00;0.00;;;;;;;;;;5096285;28;20105;-87
2022/06/29 13:08:49;;;;;;;0.00;0.00;;;;;;;;;;5094708;28;20135;-88
2022/06/29 13:11:15;;;;;;;0.00;0.00;;;;;;;;;;5077773;28;20089;-88
2022/06/29 13:13:41;;;;;;;0.00;0.00;;;;;;;;;;5094325;28;20440;-88
2022/06/29 13:16:07;;;;;;;0.00;0.00;;;;;;;;;;5078150;28;20097;-89
2022/06/29 13:18:34;;;;;;;0.00;0.00;;;;;;;;;;5094600;28;20040;-88
2022/06/29 13:21:00;;;;;;;0.00;0.00;;;;;;;;;;5077640;28;20502;-88
2022/06/29 13:23:26;;;;;;;0.00;0.00;;;;;;;;;;5094463;28;20130;-91
2022/06/29 13:25:52;;;;;;;0.00;0.00;;;;;;;;;;5094464;28;20475;-89
2022/06/29 13:28:18;;;;;;;0.00;0.00;;;;;;;;;;5094195;28;20040;-88
2022/06/29 13:30:44;;;;;;;0.10;0.10;;;;;;;;;;5077868;28;20044;-88
2022/06/29 13:33:10;;;;;;;0.00;0.00;;;;;;;;;;5094351;28;20410;-88
2022/06/29 13:35:36;;;;;;;0.00;0.00;;;;;;;;;;5094378;28;20035;-88
2022/06/29 13:38:03;;;;;;;0.00;0.00;;;;;;;;;;5077267;28;20040;-88
2022/06/29 13:40:29;;;;;;;0.00;0.00;;;;;;;;;;5094575;28;20044;-89
2022/06/29 13:42:55;;;;;;;0.00;0.00;;;;;;;;;;5094232;28;20498;-89
2022/06/29 13:45:21;;;;;;;0.00;0.00;;;;;;;;;;5094090;28;20032;-89
2022/06/29 13:47:47;;;;;;;0.00;0.00;;;;;;;;;;5094139;28;20032;-89
2022/06/29 13:50:13;;;;;;;0.00;0.00;;;;;;;;;;5094008;28;20123;-89
2022/06/29 13:52:39;;;;;;;0.00;0.00;;;;;;;;;;5094427;28;20085;-88
2022/06/29 13:55:05;;;;;;;0.00;0.00;;;;;;;;;;5093647;28;20058;-88
2022/06/29 13:57:31;;;;;;;0.00;0.00;;;;;;;;;;5094340;28;20378;-89
2022/06/29 13:59:57;;;;;;;0.00;0.00;;;;;;;;;;5093950;28;20040;-89
2022/06/29 14:02:23;;;;;;;0.00;0.00;;;;;;;;;;5093963;28;20043;-89
2022/06/29 14:04:49;;;;;;;0.00;0.00;;;;;;;;;;5093467;28;20086;-88
2022/06/29 14:07:15;;;;;;;0.00;0.00;;;;;;;;;;5093732;28;20076;-90
2022/06/29 14:09:41;;;;;;;0.00;0.00;;;;;;;;;;5093680;28;20082;-88
2022/06/29 14:12:08;;;;;;;0.00;0.00;;;;;;;;;;5093687;28;20040;-89
2022/06/29 14:14:34;;;;;;;0.05;0.00;;;;;;;;;;5076393;28;20391;-88
2022/06/29 14:17:00;;;;;;;0.00;0.00;;;;;;;;;;5092496;28;20044;-87
2022/06/29 14:19:26;;;;;;;0.00;0.00;;;;;;;;;;5093490;28;20039;-88
2022/06/29 14:21:52;;;;;;;0.00;0.00;;;;;;;;;;5093520;28;20055;-88
2022/06/29 14:24:18;;;;;;;0.00;0.00;;;;;;;;;;5092241;28;20040;-90
2022/06/29 14:26:44;;;;;;;0.00;0.00;;;;;;;;;;5093587;28;20491;-88
2022/06/29 14:29:10;;;;;;;0.00;0.00;;;;;;;;;;5093215;28;20052;-88
2022/06/29 14:31:37;;;;;;;0.00;0.00;;;;;;;;;;5093712;28;20054;-89
2022/06/29 14:34:03;;;;;;;0.00;0.00;;;;;;;;;;5076372;28;20036;-88
2022/06/29 14:36:29;;;;;;;0.00;0.00;;;;;;;;;;5093267;28;20046;-89
2022/06/29 14:38:55;;;;;;;0.00;0.00;;;;;;;;;;5093000;28;20036;-89
2022/06/29 14:41:21;;;;;;;0.00;0.00;;;;;;;;;;5093100;28;20123;-89
2022/06/29 14:43:47;;;;;;;0.00;0.00;;;;;;;;;;5092888;28;20043;-89
2022/06/29 14:46:13;;;;;;;0.13;0.00;;;;;;;;;;5093082;28;20044;-88
2022/06/29 14:48:39;;;;;;;0.00;0.00;;;;;;;;;;5093135;28;20044;-88
2022/06/29 14:51:05;;;;;;;0.00;0.00;;;;;;;;;;5092943;28;20047;-89
2022/06/29 14:53:30;;;;;;;0.00;0.00;;;;;;;;;;5092188;28;20048;-89
2022/06/29 14:55:56;;;;;;;0.00;0.00;;;;;;;;;;5093014;28;20036;-88
2022/06/29 14:58:22;;;;;;;0.00;0.00;;;;;;;;;;5092793;28;20039;-88
2022/06/29 15:00:49;;;;;;;0.00;0.00;;;;;;;;;;5075804;28;20040;-89
2022/06/29 15:03:15;;;;;;;0.00;0.00;;;;;;;;;;5093190;28;20042;-90
2022/06/29 15:05:41;;;;;;;0.00;0.00;;;;;;;;;;5076107;28;20036;-89
2022/06/29 15:08:07;;;;;;;0.38;0.00;;;;;;;;;;5092678;28;20088;-89
2022/06/29 15:10:35;;;;;;;0.00;0.00;;;;;;;;;;5092702;28;20096;-88
2022/06/29 15:13:02;;;;;;;0.00;0.00;;;;;;;;;;5092634;28;20083;-89
2022/06/29 15:15:28;;;;;;;0.00;0.00;;;;;;;;;;5092205;28;20083;-88
2022/06/29 15:17:54;;;;;;;0.00;0.00;;;;;;;;;;5092469;28;20068;-89
2022/06/29 15:20:20;;;;;;;0.00;0.00;;;;;;;;;;5076139;28;20051;-91
2022/06/29 15:22:46;;;;;;;0.00;0.00;;;;;;;;;;5075686;28;20036;-89
2022/06/29 15:25:12;;;;;;;0.00;0.00;;;;;;;;;;5092579;28;20040;-89
2022/06/29 15:27:38;;;;;;;0.00;0.00;;;;;;;;;;5092987;28;20043;-91
2022/06/29 15:30:04;;;;;;;0.00;0.00;;;;;;;;;;5092662;28;20040;-90
2022/06/29 15:32:32;;;;;;;0.00;0.00;;;;;;;;;;5093059;28;20483;-90
2022/06/29 15:40:27;;;;;;;0.00;0.00;;;;;;;;;;5092647;28;20044;-91
2022/06/29 15:42:54;;;;;;;0.00;0.00;;;;;;;;;;5093159;28;20278;-90
2022/06/29 15:45:20;;;;;;;0.00;0.00;;;;;;;;;;5092445;28;20047;-91